Time;durP1;ratioP1;P1;durP2;ratioP2;P2;SDS_P1;SDS_P2;PMS_P1;PMS_P2;Temp;Humidity;BMP_temperature;BMP_pressure;BME280_temperature;BME280_humidity;BME280_pressure;Samples;Min_cycle;Max_cycle;Signal;HPM_P1;HPM_P2
2023/03/18 00:00:29;;;;;;;;;;;8.00;99.90;;;;;;5056732;28;19909;-70
2023/03/18 00:02:55;;;;;;;;;;;8.00;99.90;;;;;;5056446;28;20424;-69
2023/03/18 00:05:21;;;;;;;;;;;7.90;99.90;;;;;;5055478;28;19916;-69
2023/03/18 00:07:46;;;;;;;;;;;7.90;99.90;;;;;;5055397;28;19909;-69
2023/03/18 00:10:12;;;;;;;;;;;7.80;99.90;;;;;;5054910;28;19924;-69
2023/03/18 00:12:39;;;;;;;;;;;7.90;99.90;;;;;;5054812;28;19944;-69
2023/03/18 00:15:05;;;;;;;;;;;7.90;99.90;;;;;;5054901;28;19909;-69
2023/03/18 00:17:31;;;;;;;;;;;7.90;99.90;;;;;;5055263;28;19909;-70
2023/03/18 00:19:57;;;;;;;;;;;7.80;99.90;;;;;;5054771;28;20338;-70
2023/03/18 00:22:23;;;;;;;;;;;7.90;99.90;;;;;;5055161;28;19909;-70
2023/03/18 00:24:49;;;;;;;;;;;7.90;99.90;;;;;;5053481;28;19913;-70
2023/03/18 00:27:15;;;;;;;;;;;7.90;99.90;;;;;;5055096;28;19984;-70
2023/03/18 00:29:40;;;;;;;;;;;8.00;99.90;;;;;;5054657;28;19915;-70
2023/03/18 00:32:06;;;;;;;;;;;8.00;99.90;;;;;;5054630;28;20278;-70
2023/03/18 00:34:32;;;;;;;;;;;7.90;99.90;;;;;;5054658;28;20321;-72
2023/03/18 00:36:59;;;;;;;;;;;7.90;99.90;;;;;;5054751;28;20371;-70
2023/03/18 00:39:25;;;;;;;;;;;7.80;99.90;;;;;;5054315;28;19987;-70
2023/03/18 00:41:54;;;;;;;;;;;7.90;99.90;;;;;;5054318;28;19909;-70
2023/03/18 00:44:20;;;;;;;;;;;7.80;99.90;;;;;;5054729;28;19924;-69
2023/03/18 00:46:46;;;;;;;;;;;7.80;99.90;;;;;;5054798;28;19909;-70
2023/03/18 00:49:12;;;;;;;;;;;7.70;99.90;;;;;;5053026;28;19908;-69
2023/03/18 00:51:40;;;;;;;;;;;7.60;99.90;;;;;;5053819;28;20267;-69
2023/03/18 00:54:07;;;;;;;;;;;7.70;99.90;;;;;;5054121;28;19947;-72
2023/03/18 00:56:33;;;;;;;;;;;7.60;99.90;;;;;;5054431;28;20358;-69
2023/03/18 00:58:59;;;;;;;;;;;7.70;99.90;;;;;;5052714;28;19913;-69
2023/03/18 01:01:25;;;;;;;;;;;7.60;99.90;;;;;;5054427;28;19908;-70
2023/03/18 01:03:51;;;;;;;;;;;7.60;99.90;;;;;;5053667;28;19975;-74
2023/03/18 01:06:19;;;;;;;;;;;7.60;99.90;;;;;;5054109;28;19980;-69
2023/03/18 01:08:45;;;;;;;;;;;7.60;99.90;;;;;;5054625;28;20339;-69
2023/03/18 01:11:12;;;;;;;;;;;7.50;99.90;;;;;;5053772;28;19916;-69
2023/03/18 01:13:38;;;;;;;;;;;7.50;99.90;;;;;;5053583;28;19973;-70
2023/03/18 01:16:04;;;;;;;;;;;7.50;99.90;;;;;;5054086;28;19909;-73
2023/03/18 01:18:30;;;;;;;;;;;7.50;99.90;;;;;;5053486;28;19919;-70
2023/03/18 01:20:56;;;;;;;;;;;7.50;99.90;;;;;;5053273;28;19908;-70
2023/03/18 01:23:22;;;;;;;;;;;7.40;99.90;;;;;;5053324;28;19924;-69
2023/03/18 01:25:48;;;;;;;;;;;7.50;99.90;;;;;;5052697;28;20363;-69
2023/03/18 01:28:14;;;;;;;;;;;7.40;99.90;;;;;;5052685;28;19913;-70
2023/03/18 01:30:41;;;;;;;;;;;7.40;99.90;;;;;;5052489;28;19920;-70
2023/03/18 01:33:07;;;;;;;;;;;7.40;99.90;;;;;;5052360;28;19920;-70
2023/03/18 01:35:36;;;;;;;;;;;7.40;99.90;;;;;;5052330;28;19908;-70
2023/03/18 01:38:03;;;;;;;;;;;7.40;99.90;;;;;;5053480;28;19952;-69
2023/03/18 01:40:29;;;;;;;;;;;7.50;99.90;;;;;;5053163;28;19909;-69
2023/03/18 01:42:56;;;;;;;;;;;7.40;99.90;;;;;;5053465;28;19908;-70
2023/03/18 01:45:24;;;;;;;;;;;7.40;99.90;;;;;;5052507;28;20357;-69
2023/03/18 01:47:50;;;;;;;;;;;7.30;99.90;;;;;;5052483;28;20374;-70
2023/03/18 01:50:17;;;;;;;;;;;7.40;99.90;;;;;;5052468;28;19993;-69
2023/03/18 01:52:44;;;;;;;;;;;7.30;99.90;;;;;;5053034;28;19913;-69
2023/03/18 01:55:17;;;;;;;;;;;7.30;99.90;;;;;;5053408;28;19934;-71
2023/03/18 01:57:44;;;;;;;;;;;7.40;99.90;;;;;;5053361;28;19916;-69
2023/03/18 02:00:10;;;;;;;;;;;7.40;99.90;;;;;;5051435;28;20053;-70
2023/03/18 02:02:41;;;;;;;;;;;7.40;99.90;;;;;;5053619;28;19915;-69
2023/03/18 02:05:10;;;;;;;;;;;7.40;99.90;;;;;;5053254;28;19909;-69
2023/03/18 02:07:36;;;;;;;;;;;7.40;99.90;;;;;;5053032;28;19948;-70
2023/03/18 02:10:04;;;;;;;;;;;7.30;99.90;;;;;;5051562;28;19909;-69
2023/03/18 02:12:32;;;;;;;;;;;7.30;99.90;;;;;;5051593;28;20298;-70
2023/03/18 02:14:59;;;;;;;;;;;7.30;99.90;;;;;;5053186;28;19913;-70
2023/03/18 02:17:26;;;;;;;;;;;7.20;99.90;;;;;;5052745;28;20381;-70
2023/03/18 02:19:55;;;;;;;;;;;7.20;99.90;;;;;;5052776;28;19916;-70
2023/03/18 02:22:32;;;;;;;;;;;7.20;99.90;;;;;;5052975;28;19909;-69
2023/03/18 02:25:16;;;;;;;;;;;7.20;99.90;;;;;;5051376;28;20292;-69
2023/03/18 02:27:48;;;;;;;;;;;7.10;99.90;;;;;;5053086;28;19959;-69
2023/03/18 02:30:19;;;;;;;;;;;7.10;99.90;;;;;;5054608;28;20282;-69
2023/03/18 02:32:46;;;;;;;;;;;7.00;99.90;;;;;;5056771;28;19913;-69
2023/03/18 02:35:12;;;;;;;;;;;7.00;99.90;;;;;;5055565;28;19909;-69
2023/03/18 02:37:38;;;;;;;;;;;7.00;99.90;;;;;;5056612;28;20362;-69
2023/03/18 02:40:18;;;;;;;;;;;6.90;99.90;;;;;;5056480;28;20291;-70
2023/03/18 02:42:45;;;;;;;;;;;6.90;99.90;;;;;;5056637;28;19909;-72
2023/03/18 02:45:18;;;;;;;;;;;7.00;99.90;;;;;;5056756;28;20015;-69
2023/03/18 02:47:44;;;;;;;;;;;6.90;99.90;;;;;;5057116;28;19991;-69
2023/03/18 02:50:09;;;;;;;;;;;6.90;99.90;;;;;;5056241;28;20350;-70
2023/03/18 02:52:35;;;;;;;;;;;6.90;99.90;;;;;;5056413;28;19913;-69
2023/03/18 02:55:01;;;;;;;;;;;6.80;99.90;;;;;;5056067;28;19913;-70
2023/03/18 02:57:27;;;;;;;;;;;6.80;99.90;;;;;;5056642;28;19938;-69
2023/03/18 02:59:52;;;;;;;;;;;6.90;99.90;;;;;;5056520;28;19909;-70
2023/03/18 03:02:18;;;;;;;;;;;6.80;99.90;;;;;;5056069;28;19974;-69
2023/03/18 03:04:44;;;;;;;;;;;6.90;99.90;;;;;;5054848;28;19966;-70
2023/03/18 03:07:11;;;;;;;;;;;6.80;99.90;;;;;;5056400;28;19913;-69
2023/03/18 03:09:36;;;;;;;;;;;6.80;99.90;;;;;;5056327;28;19909;-69
2023/03/18 03:12:02;;;;;;;;;;;6.90;99.90;;;;;;5056266;28;20082;-69
2023/03/18 03:14:28;;;;;;;;;;;6.80;99.90;;;;;;5055022;28;19909;-69
2023/03/18 03:16:54;;;;;;;;;;;6.90;99.90;;;;;;5056124;28;19919;-70
2023/03/18 03:19:19;;;;;;;;;;;6.90;99.90;;;;;;5056115;28;19909;-69
2023/03/18 03:21:45;;;;;;;;;;;6.90;99.90;;;;;;5056086;28;19909;-71
2023/03/18 03:24:11;;;;;;;;;;;6.90;99.90;;;;;;5054931;28;19920;-69
2023/03/18 03:26:36;;;;;;;;;;;6.90;99.90;;;;;;5055959;28;20055;-70
2023/03/18 03:29:03;;;;;;;;;;;6.90;99.90;;;;;;5057543;28;19916;-69
2023/03/18 03:31:29;;;;;;;;;;;7.00;99.90;;;;;;5056169;28;19908;-70
2023/03/18 03:33:55;;;;;;;;;;;7.00;99.90;;;;;;5056922;28;19980;-70
2023/03/18 03:36:20;;;;;;;;;;;6.90;99.90;;;;;;5054793;28;20366;-70
2023/03/18 03:38:47;;;;;;;;;;;6.90;99.90;;;;;;5054899;28;19951;-70
2023/03/18 03:41:14;;;;;;;;;;;6.80;99.90;;;;;;5054285;28;20291;-69
2023/03/18 03:43:40;;;;;;;;;;;6.80;99.90;;;;;;5053194;28;19948;-69
2023/03/18 03:46:06;;;;;;;;;;;6.80;99.90;;;;;;5054500;28;20368;-69
2023/03/18 03:48:32;;;;;;;;;;;6.70;99.90;;;;;;5054379;28;20540;-70
2023/03/18 03:50:58;;;;;;;;;;;6.70;99.90;;;;;;5052990;28;19916;-69
2023/03/18 03:53:24;;;;;;;;;;;6.70;99.90;;;;;;5054665;28;19912;-71
2023/03/18 03:55:50;;;;;;;;;;;6.80;99.90;;;;;;5054395;28;20011;-70
2023/03/18 03:58:15;;;;;;;;;;;6.70;99.90;;;;;;5053927;28;19932;-69
2023/03/18 04:00:41;;;;;;;;;;;6.80;99.90;;;;;;5053860;28;19920;-69
2023/03/18 04:03:07;;;;;;;;;;;6.80;99.90;;;;;;5053750;28;19913;-69
2023/03/18 04:05:33;;;;;;;;;;;6.80;99.90;;;;;;5054002;28;19951;-69
2023/03/18 04:07:59;;;;;;;;;;;6.80;99.90;;;;;;5054305;28;19909;-69
2023/03/18 04:10:25;;;;;;;;;;;6.80;99.90;;;;;;5053893;28;19909;-70
2023/03/18 04:12:51;;;;;;;;;;;6.70;99.90;;;;;;5053651;28;19913;-69
2023/03/18 04:15:18;;;;;;;;;;;6.60;99.90;;;;;;5053928;28;19915;-70
2023/03/18 04:17:44;;;;;;;;;;;6.60;99.90;;;;;;5052674;28;19909;-70
2023/03/18 04:20:10;;;;;;;;;;;6.60;99.90;;;;;;5053813;28;19955;-69
2023/03/18 04:22:36;;;;;;;;;;;6.60;99.90;;;;;;4985224;28;1951461;-69
2023/03/18 04:25:02;;;;;;;;;;;6.60;99.90;;;;;;5054608;28;19908;-70
2023/03/18 04:27:28;;;;;;;;;;;6.60;99.90;;;;;;5054819;28;19909;-69
2023/03/18 04:29:54;;;;;;;;;;;6.60;99.90;;;;;;5053397;28;19915;-69
2023/03/18 04:32:20;;;;;;;;;;;6.60;99.90;;;;;;5054013;28;20317;-70
2023/03/18 04:34:45;;;;;;;;;;;6.50;99.90;;;;;;5053432;28;19908;-69
2023/03/18 04:37:13;;;;;;;;;;;6.60;99.90;;;;;;5052344;28;19975;-70
2023/03/18 04:39:39;;;;;;;;;;;6.50;99.90;;;;;;5053270;28;20287;-69
2023/03/18 04:42:05;;;;;;;;;;;6.50;99.90;;;;;;5053452;28;19909;-70
2023/03/18 04:44:31;;;;;;;;;;;6.60;99.90;;;;;;5053336;28;19916;-69
2023/03/18 04:46:56;;;;;;;;;;;6.60;99.90;;;;;;5054350;28;19909;-70
2023/03/18 04:49:23;;;;;;;;;;;6.60;99.90;;;;;;5054304;28;19913;-70
2023/03/18 04:51:49;;;;;;;;;;;6.70;99.90;;;;;;5053119;28;19936;-70
2023/03/18 04:54:14;;;;;;;;;;;6.60;99.90;;;;;;5052809;28;19908;-70
2023/03/18 04:56:40;;;;;;;;;;;6.50;99.90;;;;;;5053056;28;20002;-69
2023/03/18 04:59:06;;;;;;;;;;;6.60;99.90;;;;;;5053380;28;19909;-69
2023/03/18 05:01:32;;;;;;;;;;;6.50;99.90;;;;;;5054449;28;19908;-70
2023/03/18 05:03:58;;;;;;;;;;;6.50;99.90;;;;;;5053736;28;19916;-69
2023/03/18 05:06:25;;;;;;;;;;;6.50;99.90;;;;;;5053818;28;20274;-69
2023/03/18 05:08:51;;;;;;;;;;;6.40;99.90;;;;;;5054189;28;20401;-71
2023/03/18 05:11:17;;;;;;;;;;;6.40;99.90;;;;;;5053734;28;19909;-69
2023/03/18 05:13:43;;;;;;;;;;;6.40;99.90;;;;;;5053655;28;20298;-69
2023/03/18 05:16:08;;;;;;;;;;;6.50;99.90;;;;;;5054139;28;19909;-69
2023/03/18 05:18:35;;;;;;;;;;;6.60;99.90;;;;;;5054069;28;19909;-69
2023/03/18 05:21:01;;;;;;;;;;;6.50;99.90;;;;;;5053560;28;19909;-70
2023/03/18 05:23:27;;;;;;;;;;;6.50;99.90;;;;;;5053818;28;19917;-69
2023/03/18 05:25:53;;;;;;;;;;;6.60;99.90;;;;;;5053910;28;19909;-70
2023/03/18 05:28:18;;;;;;;;;;;6.60;99.90;;;;;;5053868;28;19908;-69
2023/03/18 05:30:44;;;;;;;;;;;6.50;99.90;;;;;;5053569;28;20334;-69
2023/03/18 05:33:10;;;;;;;;;;;6.50;99.90;;;;;;5053509;28;20012;-70
2023/03/18 05:35:35;;;;;;;;;;;6.50;99.90;;;;;;5053304;28;19909;-70
2023/03/18 05:38:01;;;;;;;;;;;6.50;99.90;;;;;;5053326;28;19909;-70
2023/03/18 05:40:27;;;;;;;;;;;6.50;99.90;;;;;;5053871;28;19916;-69
2023/03/18 05:42:53;;;;;;;;;;;6.50;99.90;;;;;;5053635;28;19908;-72
2023/03/18 05:45:19;;;;;;;;;;;6.50;99.90;;;;;;5053483;28;19909;-70
2023/03/18 05:47:44;;;;;;;;;;;6.40;99.90;;;;;;5053552;28;19998;-69
2023/03/18 05:50:10;;;;;;;;;;;6.40;99.90;;;;;;5052728;28;20477;-70
2023/03/18 05:52:37;;;;;;;;;;;6.50;99.90;;;;;;5053100;28;20011;-69
2023/03/18 05:55:03;;;;;;;;;;;6.50;99.90;;;;;;5053251;28;19998;-69
2023/03/18 05:57:28;;;;;;;;;;;6.50;99.90;;;;;;5053337;28;20052;-70
2023/03/18 05:59:54;;;;;;;;;;;6.50;99.90;;;;;;5053128;28;19915;-69
2023/03/18 06:02:20;;;;;;;;;;;6.50;99.90;;;;;;5052691;28;19994;-69
2023/03/18 06:04:46;;;;;;;;;;;6.60;99.90;;;;;;5053056;28;19984;-69
2023/03/18 06:07:12;;;;;;;;;;;6.60;99.90;;;;;;5053166;28;19909;-69
2023/03/18 06:09:38;;;;;;;;;;;6.70;99.90;;;;;;5053255;28;19908;-69
2023/03/18 06:12:04;;;;;;;;;;;6.70;99.90;;;;;;5051450;28;19956;-69
2023/03/18 06:14:30;;;;;;;;;;;6.80;99.90;;;;;;5052694;28;20301;-70
2023/03/18 06:16:55;;;;;;;;;;;6.80;99.90;;;;;;5053164;28;19988;-70
2023/03/18 06:19:21;;;;;;;;;;;6.90;99.90;;;;;;5052669;28;19999;-70
2023/03/18 06:21:47;;;;;;;;;;;7.00;99.90;;;;;;5052784;28;20459;-70
2023/03/18 06:24:16;;;;;;;;;;;7.00;99.90;;;;;;5052681;28;19982;-70
2023/03/18 06:26:42;;;;;;;;;;;7.10;99.90;;;;;;5052647;28;19909;-70
2023/03/18 06:29:08;;;;;;;;;;;7.30;99.90;;;;;;5053208;28;19908;-70
2023/03/18 06:31:34;;;;;;;;;;;7.40;99.90;;;;;;5051921;28;20670;-70
2023/03/18 06:33:59;;;;;;;;;;;7.30;99.90;;;;;;5051445;28;20142;-70
2023/03/18 06:36:25;;;;;;;;;;;7.40;99.90;;;;;;5052892;28;19909;-69
2023/03/18 06:38:51;;;;;;;;;;;7.40;99.90;;;;;;5052454;28;19932;-69
2023/03/18 06:41:17;;;;;;;;;;;7.60;99.90;;;;;;5052421;28;20095;-70
2023/03/18 06:43:43;;;;;;;;;;;7.70;99.90;;;;;;5052545;28;20394;-72
2023/03/18 06:46:09;;;;;;;;;;;7.70;99.90;;;;;;5052496;28;20339;-70
2023/03/18 06:48:39;;;;;;;;;;;7.80;99.90;;;;;;5051249;28;19948;-70
2023/03/18 06:51:05;;;;;;;;;;;8.00;99.90;;;;;;5052233;28;19915;-70
2023/03/18 06:53:32;;;;;;;;;;;8.00;99.90;;;;;;5052914;28;20003;-69
2023/03/18 06:55:58;;;;;;;;;;;8.00;99.90;;;;;;5052733;28;20026;-69
2023/03/18 06:58:23;;;;;;;;;;;8.10;99.90;;;;;;5053479;28;19956;-70
2023/03/18 07:00:49;;;;;;;;;;;8.20;99.90;;;;;;5053327;28;19936;-70
2023/03/18 07:03:15;;;;;;;;;;;8.30;99.90;;;;;;5054143;28;19909;-70
2023/03/18 07:05:41;;;;;;;;;;;8.40;99.90;;;;;;5054187;28;19963;-70
2023/03/18 07:08:08;;;;;;;;;;;8.50;99.90;;;;;;5053007;28;19909;-70
2023/03/18 07:10:33;;;;;;;;;;;8.50;99.90;;;;;;5051988;28;20311;-70
2023/03/18 07:13:00;;;;;;;;;;;8.60;99.90;;;;;;5051198;28;19955;-72
2023/03/18 07:15:26;;;;;;;;;;;8.70;99.90;;;;;;5052279;28;19918;-70
2023/03/18 07:17:52;;;;;;;;;;;8.70;99.90;;;;;;5056626;28;19909;-70
2023/03/18 07:20:18;;;;;;;;;;;8.80;99.90;;;;;;5054712;28;19956;-70
2023/03/18 07:22:46;;;;;;;;;;;9.00;99.90;;;;;;5056468;28;19919;-71
2023/03/18 07:25:12;;;;;;;;;;;9.10;99.90;;;;;;5055807;28;19936;-70
2023/03/18 07:27:38;;;;;;;;;;;9.10;99.90;;;;;;5055711;28;19913;-70
2023/03/18 07:30:04;;;;;;;;;;;9.20;99.90;;;;;;5055645;28;20011;-72
2023/03/18 07:32:30;;;;;;;;;;;9.30;99.90;;;;;;5055442;28;20012;-70
2023/03/18 07:34:56;;;;;;;;;;;9.30;99.90;;;;;;5055439;28;20393;-70
2023/03/18 07:37:22;;;;;;;;;;;9.40;99.90;;;;;;5056043;28;19909;-75
2023/03/18 07:39:47;;;;;;;;;;;9.40;99.90;;;;;;5055873;28;19936;-71
2023/03/18 07:42:14;;;;;;;;;;;9.50;99.90;;;;;;5054864;28;19908;-70
2023/03/18 07:44:40;;;;;;;;;;;9.60;99.90;;;;;;5054379;28;20289;-70
2023/03/18 07:47:05;;;;;;;;;;;9.70;99.90;;;;;;5055908;28;19909;-71
2023/03/18 07:49:31;;;;;;;;;;;9.80;99.90;;;;;;5055376;28;20252;-70
2023/03/18 07:51:57;;;;;;;;;;;9.80;99.90;;;;;;5055457;28;20286;-69
2023/03/18 07:54:23;;;;;;;;;;;10.00;99.90;;;;;;5055909;28;19913;-74
2023/03/18 07:56:50;;;;;;;;;;;10.10;99.90;;;;;;5055784;28;19940;-71
2023/03/18 07:59:16;;;;;;;;;;;10.10;99.90;;;;;;5055295;28;19909;-70
2023/03/18 08:01:42;;;;;;;;;;;10.10;99.90;;;;;;5055259;28;19909;-71
2023/03/18 08:04:08;;;;;;;;;;;10.30;99.90;;;;;;5055706;28;19916;-70
2023/03/18 08:06:34;;;;;;;;;;;10.50;99.90;;;;;;5055416;28;19909;-70
2023/03/18 08:09:00;;;;;;;;;;;10.60;99.90;;;;;;5055539;28;19920;-70
2023/03/18 08:11:26;;;;;;;;;;;10.60;99.90;;;;;;5054672;28;19962;-71
2023/03/18 08:13:51;;;;;;;;;;;11.00;99.90;;;;;;5055043;28;19908;-71
2023/03/18 08:16:20;;;;;;;;;;;11.10;99.90;;;;;;5054814;28;19909;-70
2023/03/18 08:18:45;;;;;;;;;;;11.10;99.90;;;;;;5055292;28;19974;-70
2023/03/18 08:21:11;;;;;;;;;;;11.10;99.90;;;;;;5054688;28;20322;-71
2023/03/18 08:23:37;;;;;;;;;;;11.10;99.90;;;;;;5054423;28;19923;-70
2023/03/18 08:26:03;;;;;;;;;;;11.00;99.90;;;;;;5054765;28;19909;-71
2023/03/18 08:28:29;;;;;;;;;;;11.00;99.90;;;;;;5053661;28;20007;-71
2023/03/18 08:30:55;;;;;;;;;;;10.90;99.90;;;;;;5054691;28;20328;-70
2023/03/18 08:33:22;;;;;;;;;;;10.90;99.90;;;;;;5054451;28;20333;-70
2023/03/18 08:35:48;;;;;;;;;;;11.00;99.90;;;;;;5054305;28;19908;-70
2023/03/18 08:38:14;;;;;;;;;;;11.00;99.90;;;;;;5054142;28;20418;-71
2023/03/18 08:40:41;;;;;;;;;;;11.10;99.90;;;;;;5053818;28;19963;-71
2023/03/18 08:43:06;;;;;;;;;;;11.10;99.90;;;;;;5055165;28;19913;-70
2023/03/18 08:45:32;;;;;;;;;;;11.10;99.90;;;;;;5053489;28;19909;-75
2023/03/18 08:47:59;;;;;;;;;;;11.10;99.90;;;;;;5054764;28;20053;-70
2023/03/18 08:50:27;;;;;;;;;;;11.00;99.90;;;;;;5055005;28;19909;-71
2023/03/18 08:52:55;;;;;;;;;;;11.10;99.90;;;;;;5055569;28;19920;-70
2023/03/18 08:55:21;;;;;;;;;;;11.00;99.90;;;;;;5055118;28;19908;-72
2023/03/18 08:57:47;;;;;;;;;;;11.00;99.90;;;;;;5055255;28;19939;-70
2023/03/18 09:00:14;;;;;;;;;;;11.00;99.90;;;;;;5055128;28;19913;-70
2023/03/18 09:02:40;;;;;;;;;;;11.00;99.90;;;;;;5057402;28;20298;-71
2023/03/18 09:05:06;;;;;;;;;;;11.00;99.90;;;;;;5057090;28;19915;-70
2023/03/18 09:07:32;;;;;;;;;;;11.10;99.90;;;;;;5056425;28;20213;-71
2023/03/18 09:09:57;;;;;;;;;;;11.10;99.90;;;;;;5053533;28;19909;-70
2023/03/18 09:12:23;;;;;;;;;;;11.10;99.90;;;;;;5053565;28;20358;-71
2023/03/18 09:14:49;;;;;;;;;;;11.10;99.90;;;;;;5053274;28;19909;-70
2023/03/18 09:17:15;;;;;;;;;;;11.20;99.90;;;;;;5053462;28;20239;-70
2023/03/18 09:19:41;;;;;;;;;;;11.30;99.90;;;;;;5053316;28;19909;-71
2023/03/18 09:22:08;;;;;;;;;;;11.30;99.90;;;;;;5053381;28;19934;-71
2023/03/18 09:24:33;;;;;;;;;;;11.30;99.90;;;;;;5053388;28;19944;-71
2023/03/18 09:26:59;;;;;;;;;;;11.30;99.90;;;;;;5053350;28;19966;-70
2023/03/18 09:29:26;;;;;;;;;;;11.30;99.90;;;;;;5053294;28;20315;-71
2023/03/18 09:31:52;;;;;;;;;;;11.30;99.90;;;;;;5052783;28;20366;-71
2023/03/18 09:34:18;;;;;;;;;;;11.30;99.90;;;;;;5053571;28;19980;-71
2023/03/18 09:36:49;;;;;;;;;;;11.40;99.90;;;;;;5053227;28;19909;-70
2023/03/18 09:39:16;;;;;;;;;;;11.50;99.90;;;;;;5052998;28;19948;-71
2023/03/18 09:41:45;;;;;;;;;;;11.50;99.90;;;;;;5053062;28;19913;-70
2023/03/18 09:44:20;;;;;;;;;;;11.60;99.90;;;;;;5052668;28;19928;-72
2023/03/18 09:46:45;;;;;;;;;;;11.60;99.90;;;;;;5051615;28;19952;-71
2023/03/18 09:49:50;;;;;;;;;;;11.60;99.90;;;;;;5052972;28;19916;-71
2023/03/18 09:52:24;;;;;;;;;;;11.60;99.90;;;;;;5050109;28;19913;-71
2023/03/18 09:54:58;;;;;;;;;;;11.60;99.90;;;;;;5050105;28;19913;-71
2023/03/18 09:57:30;;;;;;;;;;;11.70;99.90;;;;;;5051735;28;19916;-70
2023/03/18 10:00:04;;;;;;;;;;;11.70;99.90;;;;;;5052644;28;20255;-71
2023/03/18 10:02:45;;;;;;;;;;;11.70;99.90;;;;;;5052321;28;19909;-71
2023/03/18 10:05:15;;;;;;;;;;;11.80;99.90;;;;;;5052409;28;19909;-70
2023/03/18 10:07:42;;;;;;;;;;;11.80;99.90;;;;;;5051077;28;19908;-70
2023/03/18 10:10:10;;;;;;;;;;;11.80;99.90;;;;;;5051418;28;19970;-71
2023/03/18 10:12:38;;;;;;;;;;;11.90;99.90;;;;;;5052566;28;19920;-71
2023/03/18 10:15:22;;;;;;;;;;;11.90;99.90;;;;;;5052203;28;19908;-71
2023/03/18 10:17:54;;;;;;;;;;;11.90;99.90;;;;;;5052538;28;19916;-70
2023/03/18 10:20:42;;;;;;;;;;;11.90;99.90;;;;;;5052294;28;20367;-70
2023/03/18 10:23:38;;;;;;;;;;;12.00;99.90;;;;;;5052651;28;19971;-71
2023/03/18 10:26:07;;;;;;;;;;;12.20;99.90;;;;;;5050039;28;19909;-71
2023/03/18 10:28:40;;;;;;;;;;;12.20;99.90;;;;;;5052966;28;19908;-71
2023/03/18 10:31:09;;;;;;;;;;;12.30;99.90;;;;;;5053907;28;19916;-71
2023/03/18 10:33:35;;;;;;;;;;;12.40;99.90;;;;;;5053764;28;20405;-71
2023/03/18 10:36:12;;;;;;;;;;;12.40;99.90;;;;;;5054311;28;20094;-71
2023/03/18 10:38:42;;;;;;;;;;;12.40;99.90;;;;;;5054339;28;19908;-72
2023/03/18 10:41:22;;;;;;;;;;;12.40;99.90;;;;;;5052712;28;19955;-71
2023/03/18 10:43:49;;;;;;;;;;;12.50;99.90;;;;;;5052526;28;20007;-70
2023/03/18 10:46:15;;;;;;;;;;;12.40;99.90;;;;;;5052682;28;19909;-71
2023/03/18 10:48:43;;;;;;;;;;;12.40;99.90;;;;;;5053055;28;19908;-71
2023/03/18 10:51:09;;;;;;;;;;;12.40;99.90;;;;;;5053986;28;20351;-71
2023/03/18 10:53:41;;;;;;;;;;;12.40;99.90;;;;;;5056521;28;19913;-71
2023/03/18 10:56:08;;;;;;;;;;;12.40;99.90;;;;;;5056393;28;19962;-71
2023/03/18 10:58:34;;;;;;;;;;;12.40;99.90;;;;;;5055429;28;19909;-71
2023/03/18 11:01:00;;;;;;;;;;;12.50;99.90;;;;;;5055962;28;19912;-71
2023/03/18 11:03:28;;;;;;;;;;;12.50;99.90;;;;;;5056613;28;20267;-71
2023/03/18 11:05:55;;;;;;;;;;;12.50;99.90;;;;;;5056739;28;19909;-71
2023/03/18 11:08:28;;;;;;;;;;;12.50;99.90;;;;;;5056012;28;19908;-71
2023/03/18 11:10:54;;;;;;;;;;;12.50;99.90;;;;;;5054870;28;19982;-71
2023/03/18 11:13:21;;;;;;;;;;;12.50;99.90;;;;;;5056272;28;19920;-71
2023/03/18 11:15:48;;;;;;;;;;;12.60;99.90;;;;;;5056267;28;19909;-71
2023/03/18 11:18:15;;;;;;;;;;;12.70;99.90;;;;;;5056603;28;19959;-71
2023/03/18 11:20:46;;;;;;;;;;;12.70;99.90;;;;;;5057576;28;19915;-71
2023/03/18 11:23:47;;;;;;;;;;;12.70;99.90;;;;;;5054145;28;19916;-71
2023/03/18 11:26:23;;;;;;;;;;;12.70;99.90;;;;;;5055916;28;19909;-73
2023/03/18 11:28:53;;;;;;;;;;;12.70;99.90;;;;;;5055853;28;19951;-71
2023/03/18 11:31:19;;;;;;;;;;;12.80;99.90;;;;;;5054452;28;19908;-71
2023/03/18 11:33:44;;;;;;;;;;;12.80;99.90;;;;;;5054164;28;19916;-71
2023/03/18 11:36:17;;;;;;;;;;;12.90;99.90;;;;;;5055065;28;19913;-71
2023/03/18 11:38:43;;;;;;;;;;;12.90;99.90;;;;;;5055397;28;19915;-71
2023/03/18 11:41:22;;;;;;;;;;;13.00;99.90;;;;;;5054951;28;19968;-71
2023/03/18 11:43:58;;;;;;;;;;;13.10;99.90;;;;;;5054842;28;19915;-71
2023/03/18 11:46:24;;;;;;;;;;;13.10;99.90;;;;;;5055007;28;19908;-71
2023/03/18 11:48:51;;;;;;;;;;;13.00;99.90;;;;;;5055754;28;19978;-71
2023/03/18 11:51:22;;;;;;;;;;;13.00;99.90;;;;;;5055207;28;20005;-71
2023/03/18 11:53:57;;;;;;;;;;;13.00;99.90;;;;;;5055255;28;20370;-71
2023/03/18 11:56:43;;;;;;;;;;;13.00;99.90;;;;;;5054375;28;20009;-72
2023/03/18 11:59:21;;;;;;;;;;;13.00;99.90;;;;;;5055322;28;19916;-71
2023/03/18 12:01:52;;;;;;;;;;;13.00;99.90;;;;;;5054548;28;19916;-71
2023/03/18 12:04:23;;;;;;;;;;;12.90;99.90;;;;;;5054364;28;19948;-71
2023/03/18 12:07:04;;;;;;;;;;;12.80;99.90;;;;;;5055057;28;19909;-70
2023/03/18 12:09:50;;;;;;;;;;;12.80;99.90;;;;;;5054989;28;20341;-70
2023/03/18 12:12:28;;;;;;;;;;;12.80;99.90;;;;;;5054808;28;19960;-71
2023/03/18 12:15:04;;;;;;;;;;;12.80;99.90;;;;;;5054959;28;19940;-70
2023/03/18 12:17:42;;;;;;;;;;;12.80;99.90;;;;;;5054884;28;19916;-73
2023/03/18 12:20:26;;;;;;;;;;;12.70;99.90;;;;;;5055160;28;19909;-71
2023/03/18 12:22:59;;;;;;;;;;;12.70;99.90;;;;;;5054455;28;19963;-71
2023/03/18 12:25:41;;;;;;;;;;;12.70;99.90;;;;;;5053478;28;20014;-71
2023/03/18 12:28:09;;;;;;;;;;;12.80;99.90;;;;;;5054757;28;20398;-71
2023/03/18 12:30:56;;;;;;;;;;;12.80;99.90;;;;;;5054498;28;19913;-72
2023/03/18 12:33:37;;;;;;;;;;;12.70;99.90;;;;;;5054545;28;20194;-71
2023/03/18 12:36:06;;;;;;;;;;;12.70;99.90;;;;;;5054770;28;20355;-70
2023/03/18 12:38:31;;;;;;;;;;;12.60;99.90;;;;;;5054794;28;19909;-71
2023/03/18 12:41:09;;;;;;;;;;;12.60;99.90;;;;;;5054557;28;19970;-72
2023/03/18 12:43:36;;;;;;;;;;;12.60;99.90;;;;;;5054847;28;19913;-71
2023/03/18 12:46:07;;;;;;;;;;;12.60;99.90;;;;;;5054236;28;19909;-71
2023/03/18 12:48:35;;;;;;;;;;;12.60;99.90;;;;;;5054983;28;19946;-71
2023/03/18 12:51:06;;;;;;;;;;;12.70;99.90;;;;;;5053213;28;19912;-71
2023/03/18 12:53:34;;;;;;;;;;;12.70;99.90;;;;;;5054117;28;19913;-70
2023/03/18 12:56:04;;;;;;;;;;;12.70;99.90;;;;;;5054614;28;19913;-71
2023/03/18 12:58:37;;;;;;;;;;;12.60;99.90;;;;;;5053785;28;19991;-71
2023/03/18 13:01:19;;;;;;;;;;;12.70;99.90;;;;;;5052856;28;19909;-71
2023/03/18 13:03:47;;;;;;;;;;;12.70;99.90;;;;;;5052184;28;19917;-71
2023/03/18 13:06:22;;;;;;;;;;;12.60;99.90;;;;;;5052389;28;19944;-71
2023/03/18 13:08:51;;;;;;;;;;;12.70;99.90;;;;;;5052257;28;20012;-71
2023/03/18 13:11:33;;;;;;;;;;;12.60;99.90;;;;;;5052339;28;19909;-71
2023/03/18 13:14:17;;;;;;;;;;;12.60;99.90;;;;;;5053705;28;20328;-71
2023/03/18 13:16:43;;;;;;;;;;;12.70;99.90;;;;;;5052169;28;19932;-71
2023/03/18 13:19:10;;;;;;;;;;;12.60;99.90;;;;;;5052156;28;20378;-71
2023/03/18 13:21:40;;;;;;;;;;;12.70;99.90;;;;;;5051760;28;19909;-71
2023/03/18 13:24:20;;;;;;;;;;;12.70;99.90;;;;;;5051710;28;19916;-71
2023/03/18 13:26:46;;;;;;;;;;;12.60;99.90;;;;;;5052307;28;19916;-71
2023/03/18 13:29:11;;;;;;;;;;;12.70;99.90;;;;;;5052225;28;19952;-71
2023/03/18 13:31:37;;;;;;;;;;;12.70;99.90;;;;;;5051866;28;19959;-71
2023/03/18 13:34:03;;;;;;;;;;;12.70;99.90;;;;;;5052369;28;19912;-71
2023/03/18 13:36:43;;;;;;;;;;;12.70;99.90;;;;;;5053056;28;19912;-71
2023/03/18 13:39:17;;;;;;;;;;;12.70;99.90;;;;;;5052288;28;19913;-71
2023/03/18 13:41:58;;;;;;;;;;;12.60;99.90;;;;;;5053341;28;19909;-71
2023/03/18 13:44:30;;;;;;;;;;;12.70;99.90;;;;;;5052318;28;19916;-70
2023/03/18 13:47:03;;;;;;;;;;;12.60;99.90;;;;;;5053484;28;19975;-71
2023/03/18 13:49:31;;;;;;;;;;;12.60;99.90;;;;;;5053629;28;20008;-71
2023/03/18 13:52:00;;;;;;;;;;;12.60;99.90;;;;;;5052974;28;19952;-71
2023/03/18 13:54:33;;;;;;;;;;;12.60;99.90;;;;;;5053719;28;19908;-71
2023/03/18 13:57:19;;;;;;;;;;;12.60;99.90;;;;;;5053534;28;20431;-71
2023/03/18 13:59:46;;;;;;;;;;;12.60;99.90;;;;;;5052294;28;19909;-73
2023/03/18 14:02:30;;;;;;;;;;;12.50;99.90;;;;;;5053148;28;19912;-71
2023/03/18 14:04:57;;;;;;;;;;;12.40;99.90;;;;;;5053289;28;19944;-71
2023/03/18 14:07:23;;;;;;;;;;;12.50;99.90;;;;;;5054371;28;19916;-71
2023/03/18 14:09:50;;;;;;;;;;;12.50;99.90;;;;;;5053627;28;20500;-71
2023/03/18 14:12:17;;;;;;;;;;;12.50;99.90;;;;;;5053775;28;19923;-71
2023/03/18 14:15:04;;;;;;;;;;;12.50;99.90;;;;;;5053506;28;19932;-71
2023/03/18 14:17:32;;;;;;;;;;;12.50;99.90;;;;;;5053587;28;19913;-71
2023/03/18 14:20:03;;;;;;;;;;;12.50;99.90;;;;;;5052860;28;19909;-71
2023/03/18 14:22:36;;;;;;;;;;;12.50;99.90;;;;;;5052512;28;19913;-75
2023/03/18 14:25:08;;;;;;;;;;;12.60;99.90;;;;;;5054032;28;19912;-71
2023/03/18 14:27:43;;;;;;;;;;;12.60;99.90;;;;;;5057232;28;20349;-71
2023/03/18 14:30:27;;;;;;;;;;;12.60;99.90;;;;;;5057148;28;19920;-72